Time;durP1;ratioP1;P1;durP2;ratioP2;P2;SDS_P1;SDS_P2;PMS_P1;PMS_P2;Temp;Humidity;BMP_temperature;BMP_pressure;BME280_temperature;BME280_humidity;BME280_pressure;Samples;Min_cycle;Max_cycle;Signal;HPM_P1;HPM_P2
2022/01/20 00:01:16;;;;;;;3.97;2.80;;;4.80;57.50;;;;;;5126920;27;34326;-76
2022/01/20 00:03:43;;;;;;;5.10;3.25;;;4.80;57.40;;;;;;5109434;27;34409;-76
2022/01/20 00:09:12;;;;;;;4.82;3.28;;;4.70;57.30;;;;;;5126855;27;34104;-76
2022/01/20 00:27:51;;;;;;;6.22;4.00;;;4.40;57.50;;;;;;5110050;27;34820;-76
2022/01/20 00:33:14;;;;;;;5.82;4.13;;;4.30;57.60;;;;;;5126159;27;34125;-76
2022/01/20 00:38:23;;;;;;;6.72;4.22;;;4.20;57.50;;;;;;5126454;27;34916;-76
2022/01/20 00:40:51;;;;;;;8.32;4.00;;;4.20;58.10;;;;;;5108550;27;34203;-76
2022/01/20 00:43:17;;;;;;;5.53;3.92;;;4.20;57.50;;;;;;5108180;27;34456;-76
2022/01/20 00:45:43;;;;;;;4.65;3.60;;;4.20;57.40;;;;;;5107960;27;34534;-76
2022/01/20 00:48:09;;;;;;;7.97;4.30;;;4.20;57.40;;;;;;5126035;27;34989;-76
2022/01/20 00:50:35;;;;;;;5.45;3.92;;;4.20;57.40;;;;;;5126311;27;34292;-76
2022/01/20 00:53:02;;;;;;;4.93;3.85;;;4.10;57.10;;;;;;5108163;27;34578;-76
2022/01/20 00:55:29;;;;;;;6.18;4.35;;;4.10;57.70;;;;;;5091468;27;34459;-76
2022/01/20 00:57:54;;;;;;;6.25;3.63;;;4.10;57.00;;;;;;5142586;27;35645;-76
2022/01/20 01:00:21;;;;;;;4.63;3.72;;;4.00;57.00;;;;;;5126008;27;34052;-76
2022/01/20 01:02:47;;;;;;;6.00;3.58;;;4.00;57.00;;;;;;5108149;27;34295;-76
2022/01/20 01:05:13;;;;;;;5.43;3.55;;;3.90;57.10;;;;;;5108060;27;34166;-76
2022/01/20 01:07:50;;;;;;;5.93;3.78;;;3.90;57.20;;;;;;5107305;27;36651;-76
2022/01/20 01:10:26;;;;;;;5.05;3.38;;;3.90;57.40;;;;;;5107432;27;34244;-76
2022/01/20 01:13:06;;;;;;;6.78;3.80;;;3.80;57.40;;;;;;5107929;27;34254;-75
2022/01/20 01:15:37;;;;;;;6.93;3.83;;;3.80;57.30;;;;;;5107857;27;34176;-75
2022/01/20 01:23:35;;;;;;;4.80;3.67;;;3.70;56.80;;;;;;5125672;27;34309;-76
2022/01/20 01:26:07;;;;;;;7.13;3.47;;;3.60;56.70;;;;;;5091091;27;34093;-76
2022/01/20 01:28:33;;;;;;;4.35;3.20;;;3.50;56.80;;;;;;5107668;27;34235;-76
2022/01/20 01:33:57;;;;;;;5.70;3.17;;;3.30;57.00;;;;;;5096270;27;34294;-76
2022/01/20 01:36:26;;;;;;;5.32;3.13;;;3.30;57.00;;;;;;5107267;27;34573;-76
2022/01/20 01:38:52;;;;;;;4.80;3.10;;;3.20;56.80;;;;;;5090395;27;35572;-76
2022/01/20 01:41:29;;;;;;;6.57;3.22;;;3.10;56.90;;;;;;5106913;27;34120;-76
2022/01/20 01:43:56;;;;;;;5.65;3.13;;;3.00;56.90;;;;;;5109190;27;34289;-76
2022/01/20 01:46:22;;;;;;;3.88;3.10;;;3.00;56.90;;;;;;5090313;27;34311;-76
2022/01/20 01:48:48;;;;;;;3.95;3.05;;;2.90;56.90;;;;;;5124942;27;35355;-76
2022/01/20 01:51:14;;;;;;;3.45;2.50;;;2.90;57.00;;;;;;5089674;27;34355;-76
2022/01/20 01:53:41;;;;;;;3.85;3.10;;;2.80;56.90;;;;;;5106624;27;34322;-76
2022/01/20 01:56:07;;;;;;;5.63;2.97;;;2.70;57.00;;;;;;5106732;27;34106;-76
2022/01/20 01:58:34;;;;;;;3.47;2.58;;;2.70;57.00;;;;;;5106704;27;35899;-76
2022/01/20 02:01:00;;;;;;;4.07;3.10;;;2.70;56.80;;;;;;5090467;27;34170;-76
2022/01/20 02:03:26;;;;;;;3.80;2.75;;;2.60;56.70;;;;;;5106886;27;34300;-76
2022/01/20 02:19:26;;;;;;;4.82;2.72;;;2.20;57.00;;;;;;5124020;27;34218;-76
2022/01/20 02:21:56;;;;;;;3.30;2.63;;;2.20;56.70;;;;;;5124719;27;34516;-76
2022/01/20 02:24:23;;;;;;;3.40;2.38;;;2.10;56.70;;;;;;5107032;27;34184;-76
2022/01/20 02:26:49;;;;;;;3.15;2.58;;;2.00;56.70;;;;;;5106717;27;34155;-76
2022/01/20 02:29:16;;;;;;;2.53;2.33;;;2.00;56.80;;;;;;5105591;27;35645;-76
2022/01/20 02:31:42;;;;;;;3.13;2.53;;;2.00;56.80;;;;;;5089094;27;34136;-76
2022/01/20 02:34:11;;;;;;;2.83;2.17;;;1.90;56.70;;;;;;5124095;27;34334;-76
2022/01/20 02:36:40;;;;;;;3.38;2.30;;;2.00;56.90;;;;;;5089312;27;34370;-76
2022/01/20 02:39:22;;;;;;;3.90;2.50;;;1.90;57.00;;;;;;5072831;27;35623;-76
2022/01/20 02:47:11;;;;;;;3.97;2.40;;;2.00;57.00;;;;;;5124219;27;34178;-75
2022/01/20 02:49:37;;;;;;;3.30;2.65;;;1.90;56.90;;;;;;5123779;27;34312;-75
2022/01/20 02:52:03;;;;;;;4.15;2.42;;;1.90;56.90;;;;;;5105613;27;34375;-76
2022/01/20 02:54:29;;;;;;;6.47;2.88;;;1.90;56.90;;;;;;5088991;27;34212;-75
2022/01/20 02:56:55;;;;;;;3.92;2.75;;;1.90;56.80;;;;;;5105860;27;34191;-75
2022/01/20 02:59:21;;;;;;;3.08;2.38;;;1.80;56.50;;;;;;5105157;27;35867;-75
2022/01/20 03:01:47;;;;;;;3.30;2.33;;;1.80;56.60;;;;;;5105472;27;34155;-75
2022/01/20 03:04:13;;;;;;;3.08;2.50;;;1.70;56.60;;;;;;5123295;27;34264;-75
2022/01/20 03:06:39;;;;;;;7.00;2.83;;;1.70;56.50;;;;;;5122449;27;34149;-75
2022/01/20 03:09:05;;;;;;;3.30;2.38;;;1.70;56.60;;;;;;5123402;27;34209;-76
2022/01/20 03:11:31;;;;;;;3.88;2.58;;;1.70;56.60;;;;;;5123998;27;34589;-76
2022/01/20 03:13:57;;;;;;;2.25;2.05;;;1.60;56.50;;;;;;5123459;27;34135;-76
2022/01/20 03:16:23;;;;;;;3.22;2.17;;;1.60;56.60;;;;;;5104862;27;34638;-75
2022/01/20 03:18:49;;;;;;;2.88;2.05;;;1.60;56.70;;;;;;5104775;27;36819;-76
2022/01/20 03:21:15;;;;;;;4.53;2.22;;;1.60;56.60;;;;;;5105113;27;34193;-75
2022/01/20 03:23:41;;;;;;;4.05;2.13;;;1.50;56.60;;;;;;5105472;27;34176;-75
2022/01/20 03:26:07;;;;;;;7.13;2.53;;;1.50;56.60;;;;;;5123799;27;34276;-76
2022/01/20 03:28:33;;;;;;;3.60;1.80;;;1.40;56.50;;;;;;5105004;27;35552;-76
2022/01/20 03:30:59;;;;;;;1.88;1.60;;;1.40;56.70;;;;;;5104352;27;34436;-75
2022/01/20 03:33:25;;;;;;;5.72;2.40;;;1.40;56.80;;;;;;5088459;27;34512;-76
2022/01/20 03:35:53;;;;;;;3.97;1.67;;;1.30;56.90;;;;;;5105533;27;34191;-76
2022/01/20 03:38:19;;;;;;;7.68;2.10;;;1.30;57.00;;;;;;5087876;27;35690;-76
2022/01/20 03:40:46;;;;;;;5.50;2.15;;;1.30;57.00;;;;;;5123692;27;34059;-76
2022/01/20 03:43:12;;;;;;;3.58;1.45;;;1.30;57.10;;;;;;5104791;27;34270;-75
2022/01/20 03:45:39;;;;;;;5.72;2.15;;;1.30;57.30;;;;;;5105141;27;34050;-75
2022/01/20 03:48:09;;;;;;;4.60;1.88;;;1.30;57.40;;;;;;5105017;27;34551;-76
2022/01/20 03:53:17;;;;;;;3.30;1.25;;;1.30;57.30;;;;;;5122903;27;34474;-76
2022/01/20 03:55:43;;;;;;;3.53;1.70;;;1.40;57.60;;;;;;5088124;27;34811;-76
2022/01/20 03:58:09;;;;;;;5.53;1.92;;;1.40;57.60;;;;;;5087397;27;35521;-76
2022/01/20 04:00:35;;;;;;;4.50;1.77;;;1.40;57.60;;;;;;5104900;27;34143;-76
2022/01/20 04:03:01;;;;;;;5.38;1.88;;;1.40;57.70;;;;;;5087785;27;34249;-76
2022/01/20 04:05:27;;;;;;;5.38;1.48;;;1.50;57.70;;;;;;5123554;27;34169;-75
2022/01/20 04:07:53;;;;;;;4.13;1.40;;;1.50;57.60;;;;;;5104575;27;35643;-76
2022/01/20 04:10:19;;;;;;;7.47;1.73;;;1.50;57.40;;;;;;5122618;27;34090;-76
2022/01/20 04:12:45;;;;;;;7.45;1.80;;;1.50;57.50;;;;;;5105041;27;34325;-76
2022/01/20 04:15:11;;;;;;;3.30;1.65;;;1.50;57.50;;;;;;5087961;27;34507;-76
2022/01/20 04:17:41;;;;;;;3.13;1.58;;;1.50;57.40;;;;;;5084904;28;35490;-76
2022/01/20 04:20:08;;;;;;;5.25;1.85;;;1.50;57.40;;;;;;5105460;28;34359;-76
2022/01/20 04:22:34;;;;;;;4.57;1.70;;;1.50;57.30;;;;;;5105293;28;34348;-76
2022/01/20 04:25:00;;;;;;;5.45;1.70;;;1.50;57.20;;;;;;5106994;27;34486;-76
2022/01/20 04:27:26;;;;;;;5.57;2.45;;;1.50;57.20;;;;;;5087938;28;35977;-76
2022/01/20 04:29:52;;;;;;;3.47;1.40;;;1.40;57.10;;;;;;5105173;28;34170;-76
2022/01/20 04:32:19;;;;;;;5.03;1.65;;;1.40;57.20;;;;;;5104606;28;34400;-76
2022/01/20 04:34:45;;;;;;;4.93;1.80;;;1.40;57.20;;;;;;5106090;27;34031;-76
2022/01/20 04:37:12;;;;;;;4.60;1.58;;;1.40;57.10;;;;;;5087935;28;35718;-76
2022/01/20 04:39:45;;;;;;;4.72;1.77;;;1.40;57.10;;;;;;5104738;28;34401;-76
2022/01/20 04:42:11;;;;;;;6.15;1.83;;;1.40;57.10;;;;;;5105770;27;34194;-77
2022/01/20 04:44:45;;;;;;;3.15;1.70;;;1.40;57.00;;;;;;5104699;28;34608;-76
2022/01/20 04:47:24;;;;;;;3.70;1.73;;;1.40;57.10;;;;;;5105397;27;35172;-76
2022/01/20 04:57:55;;;;;;;7.93;1.92;;;1.40;57.40;;;;;;5105011;27;34224;-77
2022/01/20 05:00:21;;;;;;;5.13;1.83;;;1.50;57.70;;;;;;5104512;28;34095;-76
2022/01/20 05:02:47;;;;;;;4.60;2.03;;;1.40;57.60;;;;;;5104402;28;34159;-77
2022/01/20 05:05:13;;;;;;;5.55;2.05;;;1.40;57.60;;;;;;5087468;28;34425;-77
2022/01/20 05:07:39;;;;;;;7.38;2.28;;;1.50;57.70;;;;;;5104167;28;35455;-76
2022/01/20 05:10:08;;;;;;;5.15;2.00;;;1.50;57.80;;;;;;5103842;28;34229;-77
2022/01/20 05:13:02;;;;;;;8.98;2.03;;;1.60;57.70;;;;;;5121545;27;34161;-77
2022/01/20 05:15:21;;;;;;;3.42;1.60;;;1.60;57.60;;;;;;5104433;27;34562;-77
2022/01/20 05:17:47;;;;;;;4.32;1.85;;;1.70;57.60;;;;;;5104073;28;36600;-77
2022/01/20 05:20:14;;;;;;;6.72;2.08;;;1.70;57.60;;;;;;5103832;27;34230;-77
2022/01/20 05:22:40;;;;;;;9.20;2.92;;;1.70;57.60;;;;;;5104078;28;34588;-76
2022/01/20 05:25:06;;;;;;;5.32;2.25;;;1.80;58.00;;;;;;5104365;28;34447;-76
2022/01/20 05:27:33;;;;;;;7.28;2.22;;;1.80;57.90;;;;;;5103562;28;35598;-77
2022/01/20 05:29:59;;;;;;;10.18;2.28;;;1.90;58.00;;;;;;5102818;28;34077;-77
2022/01/20 05:32:25;;;;;;;3.30;1.85;;;1.90;57.90;;;;;;5104336;27;34166;-77
2022/01/20 05:34:51;;;;;;;7.10;2.35;;;1.90;58.00;;;;;;5103845;28;34127;-76
2022/01/20 05:37:17;;;;;;;6.65;2.63;;;2.00;57.80;;;;;;5103221;28;35896;-76
2022/01/20 05:39:44;;;;;;;7.97;2.55;;;2.10;57.80;;;;;;5103143;28;34455;-77
2022/01/20 05:42:10;;;;;;;4.43;2.40;;;2.10;57.70;;;;;;5102941;28;34328;-77
2022/01/20 05:44:36;;;;;;;7.32;2.17;;;2.10;57.70;;;;;;5104487;27;34322;-77
2022/01/20 05:47:09;;;;;;;7.22;2.28;;;2.20;57.60;;;;;;5104318;28;34451;-77
2022/01/20 05:49:35;;;;;;;6.70;2.40;;;2.20;58.40;;;;;;5104536;28;34345;-77
2022/01/20 05:52:02;;;;;;;5.05;2.88;;;2.20;57.60;;;;;;5103657;28;34319;-76
2022/01/20 05:54:29;;;;;;;12.18;3.67;;;2.30;57.70;;;;;;5103137;28;34192;-76
2022/01/20 05:56:55;;;;;;;4.28;2.80;;;2.30;57.70;;;;;;5103956;27;34337;-77
2022/01/20 05:59:21;;;;;;;5.47;2.53;;;2.30;57.60;;;;;;5102966;28;34200;-77
2022/01/20 06:01:54;;;;;;;6.13;2.40;;;2.30;57.60;;;;;;5103132;28;34154;-77
2022/01/20 06:04:20;;;;;;;6.78;2.38;;;2.30;57.50;;;;;;5104582;27;34220;-77
2022/01/20 06:06:46;;;;;;;6.28;2.63;;;2.40;57.60;;;;;;5103240;28;36522;-76
2022/01/20 06:09:12;;;;;;;9.88;2.65;;;2.40;57.80;;;;;;5102703;28;34477;-76
2022/01/20 06:11:38;;;;;;;8.80;2.92;;;2.50;58.20;;;;;;5086610;28;34286;-76
2022/01/20 06:14:05;;;;;;;5.78;2.72;;;2.50;59.00;;;;;;5103116;27;34364;-75
2022/01/20 06:16:32;;;;;;;5.85;2.13;;;2.60;58.00;;;;;;5085425;28;35792;-75
2022/01/20 06:18:58;;;;;;;6.53;2.58;;;2.60;57.90;;;;;;5103067;28;34421;-75
2022/01/20 06:21:24;;;;;;;4.30;2.20;;;2.70;58.10;;;;;;5103886;27;34175;-75
2022/01/20 06:23:51;;;;;;;7.45;2.50;;;2.70;57.80;;;;;;5103315;28;34186;-76
2022/01/20 06:26:17;;;;;;;4.57;2.10;;;2.80;57.80;;;;;;5086023;28;35529;-76
2022/01/20 06:28:43;;;;;;;5.53;2.88;;;2.80;57.90;;;;;;5103354;28;34272;-76
2022/01/20 06:31:10;;;;;;;4.43;2.40;;;2.80;57.80;;;;;;5102918;28;34163;-76
2022/01/20 06:33:37;;;;;;;4.82;2.35;;;2.80;57.70;;;;;;5104539;28;34389;-76
2022/01/20 06:36:03;;;;;;;9.02;2.72;;;2.90;57.80;;;;;;5102528;27;35676;-76
2022/01/20 06:38:29;;;;;;;7.30;2.53;;;2.80;57.50;;;;;;5104277;28;34134;-76
2022/01/20 06:40:55;;;;;;;7.78;2.47;;;2.80;57.60;;;;;;5104065;27;34281;-76
2022/01/20 06:43:21;;;;;;;10.20;2.38;;;2.80;57.70;;;;;;5102533;28;34486;-76
2022/01/20 06:45:48;;;;;;;4.28;2.67;;;2.90;57.80;;;;;;5085889;28;36632;-77
2022/01/20 06:48:14;;;;;;;4.13;2.15;;;2.90;57.80;;;;;;5102810;28;34443;-77
2022/01/20 06:50:40;;;;;;;4.20;2.70;;;2.90;57.80;;;;;;5120542;27;34393;-77
2022/01/20 06:53:06;;;;;;;6.13;2.40;;;2.90;57.80;;;;;;5102850;28;34190;-76
2022/01/20 06:55:34;;;;;;;3.85;2.40;;;3.00;57.80;;;;;;5102800;28;36116;-77
2022/01/20 06:58:00;;;;;;;10.02;3.38;;;3.00;57.70;;;;;;5103918;27;34170;-76
2022/01/20 07:00:26;;;;;;;4.95;2.47;;;3.00;57.80;;;;;;5102940;28;34328;-76
2022/01/20 07:02:53;;;;;;;5.68;2.72;;;3.00;58.50;;;;;;5103984;27;34267;-76
2022/01/20 07:05:21;;;;;;;5.32;2.42;;;3.00;58.40;;;;;;5102131;28;35508;-77
2022/01/20 07:07:47;;;;;;;5.38;2.65;;;3.10;58.40;;;;;;5103968;27;34185;-76
2022/01/20 07:10:17;;;;;;;9.48;2.65;;;3.20;58.20;;;;;;5102889;28;34436;-76
2022/01/20 07:12:44;;;;;;;5.47;2.40;;;3.20;58.20;;;;;;5102741;28;34469;-76
2022/01/20 07:15:12;;;;;;;5.63;2.63;;;3.20;58.10;;;;;;5101705;28;36352;-76
2022/01/20 07:17:38;;;;;;;4.72;2.40;;;3.30;58.10;;;;;;5121936;27;34454;-76
2022/01/20 07:20:05;;;;;;;4.80;2.88;;;3.30;58.20;;;;;;5105852;27;34154;-76
2022/01/20 07:22:31;;;;;;;8.15;2.90;;;3.30;58.10;;;;;;5123847;27;34147;-76
2022/01/20 07:24:57;;;;;;;5.40;3.10;;;3.30;58.00;;;;;;5124126;27;35290;-77
2022/01/20 07:27:23;;;;;;;6.68;2.45;;;3.30;58.10;;;;;;5106264;27;34108;-76
2022/01/20 07:29:49;;;;;;;3.20;2.30;;;3.30;58.40;;;;;;5106132;27;34182;-76
2022/01/20 07:32:15;;;;;;;5.32;2.42;;;3.40;59.10;;;;;;5088887;27;34411;-76
2022/01/20 07:34:41;;;;;;;9.93;2.17;;;3.40;58.40;;;;;;5105801;27;35212;-76
2022/01/20 07:37:07;;;;;;;6.10;2.10;;;3.50;58.50;;;;;;5124219;27;34214;-76
2022/01/20 07:39:33;;;;;;;3.75;2.20;;;3.50;58.30;;;;;;5105891;27;34347;-76
2022/01/20 07:41:59;;;;;;;2.95;1.63;;;3.60;58.30;;;;;;5106246;27;34120;-76
2022/01/20 07:44:25;;;;;;;2.60;1.58;;;3.70;58.50;;;;;;5105598;27;35614;-76
2022/01/20 07:46:52;;;;;;;1.40;1.30;;;3.70;58.40;;;;;;5106108;27;34507;-76
2022/01/20 07:49:19;;;;;;;2.97;1.70;;;3.80;58.30;;;;;;5106136;27;34404;-76
2022/01/20 07:51:45;;;;;;;1.95;1.25;;;3.80;58.20;;;;;;5105316;27;34101;-76
2022/01/20 07:54:11;;;;;;;1.88;1.20;;;3.90;58.30;;;;;;5091471;27;36807;-76
2022/01/20 07:56:37;;;;;;;3.50;1.83;;;3.90;58.10;;;;;;5127855;27;34184;-76
2022/01/20 07:59:03;;;;;;;2.33;1.92;;;3.90;58.10;;;;;;5109369;27;34501;-76
2022/01/20 08:01:29;;;;;;;4.32;1.42;;;4.00;58.10;;;;;;5109086;27;34282;-76
2022/01/20 08:03:55;;;;;;;3.03;2.10;;;4.00;58.00;;;;;;5108882;27;36925;-76
2022/01/20 08:06:23;;;;;;;3.17;1.88;;;4.10;58.10;;;;;;5127252;27;34043;-76
2022/01/20 08:08:50;;;;;;;8.45;2.28;;;4.10;58.00;;;;;;5109105;27;34322;-76
2022/01/20 08:11:21;;;;;;;3.15;2.08;;;4.10;58.00;;;;;;5109217;27;34131;-77
2022/01/20 08:13:47;;;;;;;2.92;2.20;;;4.10;58.00;;;;;;5108445;27;35780;-76
2022/01/20 08:16:13;;;;;;;4.45;1.98;;;4.10;57.80;;;;;;5126628;27;34206;-76
2022/01/20 08:18:39;;;;;;;2.95;2.17;;;4.20;57.80;;;;;;5108925;27;34202;-76
2022/01/20 08:21:05;;;;;;;5.25;2.22;;;4.20;57.80;;;;;;5108680;27;34420;-76
2022/01/20 08:23:31;;;;;;;2.97;2.10;;;4.30;57.90;;;;;;5108140;27;35642;-76
2022/01/20 08:25:57;;;;;;;4.43;2.47;;;4.40;57.90;;;;;;5108260;27;34277;-76
2022/01/20 08:28:24;;;;;;;6.07;2.38;;;4.50;57.70;;;;;;5108211;27;34241;-76
2022/01/20 08:30:51;;;;;;;3.75;2.30;;;4.50;57.70;;;;;;5108801;27;34796;-76
2022/01/20 08:33:17;;;;;;;6.28;2.35;;;4.60;57.60;;;;;;5108360;27;36519;-76
2022/01/20 08:35:44;;;;;;;3.97;2.33;;;4.60;57.40;;;;;;5108558;27;34236;-76
2022/01/20 08:38:10;;;;;;;7.82;2.22;;;4.70;57.50;;;;;;5108417;27;34243;-76
2022/01/20 08:40:37;;;;;;;1.98;1.70;;;4.80;57.50;;;;;;5108497;27;34122;-76
2022/01/20 08:43:06;;;;;;;4.45;2.30;;;4.90;57.20;;;;;;5126055;27;35250;-76
2022/01/20 08:45:35;;;;;;;6.35;2.38;;;5.00;57.10;;;;;;5108417;27;34395;-76
2022/01/20 08:48:02;;;;;;;3.60;2.25;;;5.10;57.10;;;;;;5107945;27;34245;-76
2022/01/20 08:50:30;;;;;;;3.22;2.33;;;5.10;57.00;;;;;;5108318;27;34245;-76
2022/01/20 08:52:57;;;;;;;3.78;1.90;;;5.20;57.30;;;;;;5126786;27;34157;-76
2022/01/20 08:55:26;;;;;;;4.78;2.28;;;5.20;57.10;;;;;;5108907;27;34112;-76
2022/01/20 08:57:54;;;;;;;3.45;1.70;;;5.20;57.00;;;;;;5126676;27;34116;-76
2022/01/20 09:00:21;;;;;;;3.90;2.00;;;5.20;57.10;;;;;;5108125;27;34152;-76
2022/01/20 09:02:47;;;;;;;2.55;1.83;;;5.20;57.10;;;;;;5107783;27;35744;-76
2022/01/20 09:05:13;;;;;;;1.92;1.58;;;5.30;57.00;;;;;;5106870;27;34593;-76
2022/01/20 09:07:39;;;;;;;4.55;1.63;;;5.30;57.00;;;;;;5127666;27;34153;-76
2022/01/20 09:10:07;;;;;;;4.60;1.92;;;5.40;57.30;;;;;;5092395;27;34313;-76
2022/01/20 09:15:28;;;;;;;3.15;1.65;;;5.60;56.90;;;;;;5110475;27;34190;-76
2022/01/20 09:17:56;;;;;;;2.65;1.60;;;5.70;56.80;;;;;;5107754;27;34342;-76
2022/01/20 09:20:23;;;;;;;2.47;1.40;;;5.80;56.50;;;;;;5108137;27;34368;-76
2022/01/20 09:22:51;;;;;;;3.00;1.25;;;5.90;56.50;;;;;;5107306;27;36701;-76
2022/01/20 09:25:18;;;;;;;2.88;1.50;;;5.90;56.10;;;;;;5107997;27;34419;-76
2022/01/20 09:27:45;;;;;;;2.13;1.50;;;6.00;56.30;;;;;;5108003;27;34139;-76
2022/01/20 09:30:17;;;;;;;1.73;1.00;;;6.00;56.30;;;;;;5090687;27;34214;-76
2022/01/20 09:32:43;;;;;;;2.22;1.10;;;6.00;56.10;;;;;;5092005;27;35486;-76
2022/01/20 09:35:09;;;;;;;1.77;1.25;;;6.10;56.00;;;;;;5107676;27;34227;-76
2022/01/20 09:37:38;;;;;;;1.73;1.38;;;6.10;56.30;;;;;;5107744;27;34202;-76
2022/01/20 09:40:05;;;;;;;1.90;1.30;;;6.20;56.30;;;;;;5107068;27;34515;-76
2022/01/20 09:42:33;;;;;;;3.13;1.15;;;6.20;56.20;;;;;;5106682;27;35934;-76
2022/01/20 09:44:59;;;;;;;2.38;1.00;;;6.10;55.50;;;;;;5107220;27;34142;-77
2022/01/20 09:47:25;;;;;;;1.55;0.90;;;5.90;55.20;;;;;;5089629;27;34231;-77
2022/01/20 09:49:54;;;;;;;3.55;0.88;;;5.90;55.50;;;;;;5125444;27;34134;-77
2022/01/20 09:52:22;;;;;;;3.30;1.00;;;5.80;55.50;;;;;;5091145;27;36799;-77
2022/01/20 09:54:48;;;;;;;1.33;0.73;;;5.80;55.00;;;;;;5125357;27;34111;-77
2022/01/20 09:57:14;;;;;;;8.20;0.98;;;5.70;54.70;;;;;;5106607;27;34410;-77
2022/01/20 09:59:41;;;;;;;1.98;0.70;;;5.60;54.80;;;;;;5106597;27;34203;-76
2022/01/20 10:02:09;;;;;;;3.03;0.93;;;5.60;55.00;;;;;;5106491;27;36324;-76
2022/01/20 10:04:36;;;;;;;11.05;0.98;;;5.60;55.40;;;;;;5072864;27;34469;-77
2022/01/20 10:07:09;;;;;;;4.90;1.02;;;5.70;55.40;;;;;;5106724;27;34448;-76
2022/01/20 10:09:41;;;;;;;5.53;1.05;;;5.70;56.00;;;;;;5106893;27;34474;-77
2022/01/20 10:12:09;;;;;;;3.00;0.95;;;5.80;55.50;;;;;;5089753;27;35783;-77
2022/01/20 10:14:48;;;;;;;6.63;1.13;;;5.90;55.60;;;;;;5106420;27;34186;-77
2022/01/20 10:17:18;;;;;;;6.22;1.02;;;5.90;54.30;;;;;;5124484;27;34506;-76
2022/01/20 10:19:44;;;;;;;7.30;1.50;;;5.90;54.50;;;;;;5106838;27;34443;-77
2022/01/20 10:22:14;;;;;;;6.38;1.55;;;5.90;54.40;;;;;;5106217;27;36750;-76
2022/01/20 10:24:42;;;;;;;6.05;1.00;;;6.00;54.60;;;;;;5106534;27;34152;-76
2022/01/20 10:27:11;;;;;;;5.45;1.58;;;6.00;54.20;;;;;;5124867;27;34243;-76
2022/01/20 10:29:37;;;;;;;5.93;1.60;;;6.10;54.70;;;;;;5106911;27;34298;-76
2022/01/20 10:32:04;;;;;;;4.75;1.48;;;6.10;54.20;;;;;;5125070;27;34526;-76
2022/01/20 10:34:35;;;;;;;4.63;1.20;;;6.20;54.00;;;;;;5106467;27;34160;-76
2022/01/20 10:37:12;;;;;;;4.35;0.93;;;6.30;54.10;;;;;;5125074;27;34434;-76
2022/01/20 10:39:43;;;;;;;6.10;1.40;;;6.40;54.00;;;;;;5106901;27;34160;-76
2022/01/20 10:42:11;;;;;;;4.18;1.35;;;6.40;53.90;;;;;;5105453;27;35763;-76
2022/01/20 10:44:46;;;;;;;6.68;1.48;;;6.50;53.80;;;;;;5106155;27;34270;-76
2022/01/20 10:47:15;;;;;;;3.00;1.45;;;6.50;53.30;;;;;;5124922;27;34227;-77
2022/01/20 10:49:43;;;;;;;6.20;1.52;;;6.60;52.80;;;;;;5089334;27;34560;-76
2022/01/20 10:52:11;;;;;;;6.85;1.33;;;6.80;53.90;;;;;;5088830;27;36653;-76
2022/01/20 10:54:44;;;;;;;8.52;1.50;;;7.10;53.40;;;;;;5089411;27;34275;-76
2022/01/20 10:57:11;;;;;;;6.82;1.90;;;7.20;52.60;;;;;;5089808;27;34292;-76
2022/01/20 10:59:53;;;;;;;4.93;1.38;;;7.30;53.00;;;;;;5106511;27;34477;-76
2022/01/20 11:02:22;;;;;;;3.85;1.20;;;7.40;50.00;;;;;;5088744;27;36376;-76
2022/01/20 11:04:49;;;;;;;7.60;1.10;;;7.40;52.70;;;;;;5106223;27;34131;-76
2022/01/20 11:07:15;;;;;;;7.57;1.50;;;7.40;52.00;;;;;;5105304;27;34152;-76
2022/01/20 11:09:44;;;;;;;6.65;1.60;;;7.40;52.50;;;;;;5105953;27;34059;-76
2022/01/20 11:12:12;;;;;;;6.45;1.52;;;7.40;52.20;;;;;;5104550;27;35719;-77
2022/01/20 11:14:38;;;;;;;6.43;1.30;;;7.50;52.70;;;;;;5124469;27;34235;-76
2022/01/20 11:17:04;;;;;;;3.78;1.48;;;7.50;52.40;;;;;;5088906;27;34335;-76
2022/01/20 11:19:36;;;;;;;7.55;1.30;;;7.50;52.20;;;;;;5106520;27;34260;-76
2022/01/20 11:22:08;;;;;;;8.20;1.40;;;7.50;51.80;;;;;;5106055;27;34300;-76
2022/01/20 11:24:36;;;;;;;6.88;1.42;;;7.50;51.70;;;;;;5088400;27;34400;-77
2022/01/20 11:27:04;;;;;;;7.22;1.58;;;7.50;52.00;;;;;;5104429;27;34345;-76
2022/01/20 11:29:48;;;;;;;3.75;1.40;;;7.40;50.90;;;;;;5088624;27;34093;-76
2022/01/20 11:32:30;;;;;;;6.43;1.40;;;7.30;48.60;;;;;;5104881;27;35641;-76
2022/01/20 11:35:13;;;;;;;3.90;1.25;;;7.20;49.10;;;;;;5105606;27;34399;-76
2022/01/20 11:37:41;;;;;;;4.93;1.10;;;7.20;49.70;;;;;;5105827;27;34347;-76
2022/01/20 11:40:16;;;;;;;4.15;1.20;;;7.00;50.70;;;;;;5105939;27;34173;-75
2022/01/20 11:43:05;;;;;;;7.70;1.65;;;6.90;50.20;;;;;;5123656;27;35447;-76
2022/01/20 11:45:35;;;;;;;5.82;1.33;;;6.90;50.70;;;;;;5091392;27;34079;-75
2022/01/20 11:48:19;;;;;;;4.85;1.20;;;6.80;51.40;;;;;;5105089;27;34479;-76
2022/01/20 11:50:47;;;;;;;3.65;1.30;;;6.80;49.60;;;;;;5123455;27;34367;-75
2022/01/20 11:53:17;;;;;;;5.13;1.10;;;6.80;51.90;;;;;;5123620;27;34303;-76
2022/01/20 11:55:47;;;;;;;7.18;1.00;;;6.80;51.20;;;;;;5088927;27;34045;-77
2022/01/20 11:58:16;;;;;;;4.47;1.10;;;6.80;51.20;;;;;;5072762;27;34446;-76
2022/01/20 12:00:42;;;;;;;5.35;1.40;;;6.70;51.30;;;;;;5123510;27;34126;-76
2022/01/20 12:03:11;;;;;;;5.78;1.33;;;6.70;51.30;;;;;;5123711;27;34156;-75
2022/01/20 12:05:37;;;;;;;5.10;1.10;;;6.70;51.80;;;;;;5104948;27;34219;-75
2022/01/20 12:08:17;;;;;;;5.18;1.50;;;6.70;51.10;;;;;;5104890;27;34255;-76
2022/01/20 12:10:58;;;;;;;3.40;1.00;;;6.70;50.70;;;;;;5106614;27;34381;-77
2022/01/20 12:13:24;;;;;;;4.25;1.08;;;6.70;49.20;;;;;;5105141;27;34363;-75
2022/01/20 12:15:53;;;;;;;5.18;1.10;;;6.70;50.80;;;;;;5104926;27;34213;-76
2022/01/20 12:18:19;;;;;;;3.63;1.15;;;6.70;51.00;;;;;;5123119;27;34143;-75
2022/01/20 12:20:45;;;;;;;2.78;1.23;;;6.70;50.70;;;;;;5123639;27;34353;-76
2022/01/20 12:23:12;;;;;;;6.50;1.48;;;6.70;50.90;;;;;;5122562;27;34375;-76
2022/01/20 12:25:38;;;;;;;1.92;1.25;;;6.70;50.40;;;;;;5123007;27;34247;-75
2022/01/20 12:28:10;;;;;;;4.68;1.25;;;6.60;50.30;;;;;;5104847;27;34319;-75
2022/01/20 12:30:40;;;;;;;6.00;1.33;;;6.60;50.90;;;;;;5088349;27;34178;-75
2022/01/20 12:33:12;;;;;;;3.70;1.00;;;6.60;51.20;;;;;;5103941;27;35638;-76
2022/01/20 12:35:43;;;;;;;7.45;1.42;;;6.50;50.50;;;;;;5104198;27;34172;-77
2022/01/20 12:38:15;;;;;;;4.30;1.27;;;6.30;49.70;;;;;;5122816;27;34523;-76
2022/01/20 12:40:41;;;;;;;1.52;0.90;;;6.20;51.00;;;;;;5108328;27;34313;-76
2022/01/20 12:43:07;;;;;;;3.10;0.98;;;6.00;51.30;;;;;;5107976;27;35584;-76
2022/01/20 12:48:16;;;;;;;8.32;1.10;;;5.80;52.10;;;;;;5125816;27;34086;-76
2022/01/20 12:50:59;;;;;;;3.83;1.15;;;5.80;52.60;;;;;;5090818;27;34389;-75
2022/01/20 12:53:43;;;;;;;4.70;0.80;;;5.90;52.90;;;;;;5107476;27;36346;-75
2022/01/20 12:56:12;;;;;;;5.80;1.02;;;6.10;52.10;;;;;;5090771;27;34156;-75
2022/01/20 12:58:53;;;;;;;6.38;0.88;;;6.30;53.40;;;;;;5108241;27;34204;-76
2022/01/20 13:01:20;;;;;;;5.57;1.10;;;6.50;51.80;;;;;;5107933;27;34174;-76
2022/01/20 13:03:48;;;;;;;2.25;0.80;;;6.60;52.40;;;;;;5125010;27;34228;-76
2022/01/20 13:06:22;;;;;;;4.07;1.20;;;6.70;52.30;;;;;;5126016;27;34414;-76
2022/01/20 13:08:58;;;;;;;4.15;1.02;;;6.80;52.00;;;;;;5108329;27;34100;-76
2022/01/20 13:11:30;;;;;;;5.22;1.40;;;6.90;51.10;;;;;;5090782;27;34606;-76
2022/01/20 13:13:58;;;;;;;2.95;1.00;;;7.00;50.50;;;;;;5107191;27;36520;-76
2022/01/20 13:16:24;;;;;;;1.58;0.82;;;7.00;50.90;;;;;;5125520;27;34298;-78
2022/01/20 13:18:53;;;;;;;4.35;1.13;;;7.20;51.10;;;;;;5107895;27;34240;-75
2022/01/20 13:21:22;;;;;;;2.97;1.00;;;7.10;49.20;;;;;;5107462;27;34661;-76
2022/01/20 13:23:56;;;;;;;4.78;1.30;;;7.10;50.10;;;;;;5090982;27;36648;-76
2022/01/20 13:26:25;;;;;;;4.68;1.25;;;7.10;49.90;;;;;;5109839;27;34322;-76
2022/01/20 13:29:06;;;;;;;4.68;1.27;;;6.90;49.70;;;;;;5107514;27;34171;-76
2022/01/20 13:31:33;;;;;;;5.60;1.40;;;7.00;48.20;;;;;;5108887;27;34138;-76
2022/01/20 13:34:06;;;;;;;7.60;1.10;;;7.00;50.30;;;;;;5090818;27;35684;-76
2022/01/20 13:36:38;;;;;;;3.55;1.10;;;7.00;50.20;;;;;;5107663;27;34599;-76
2022/01/20 13:39:04;;;;;;;4.65;2.50;;;7.00;49.80;;;;;;5125413;27;34236;-76
2022/01/20 13:41:30;;;;;;;6.43;1.35;;;7.10;49.60;;;;;;5107887;27;34314;-75
2022/01/20 13:46:43;;;;;;;3.03;1.00;;;7.10;49.00;;;;;;5109766;27;34197;-76
2022/01/20 13:49:11;;;;;;;2.88;1.10;;;7.10;49.20;;;;;;5106835;27;34031;-76
2022/01/20 13:51:38;;;;;;;1.48;0.70;;;7.10;48.90;;;;;;5106166;27;34105;-76
2022/01/20 13:54:04;;;;;;;1.10;0.88;;;7.10;49.20;;;;;;5090007;27;35957;-76
2022/01/20 13:56:30;;;;;;;3.33;0.98;;;7.10;48.60;;;;;;5107340;27;34167;-76
2022/01/20 13:59:11;;;;;;;4.35;1.30;;;7.00;48.90;;;;;;5107093;27;34138;-76
2022/01/20 14:01:37;;;;;;;3.33;1.27;;;6.90;46.10;;;;;;5106478;27;34811;-76
2022/01/20 14:04:04;;;;;;;5.63;1.30;;;6.90;49.00;;;;;;5106512;27;35809;-76
2022/01/20 14:06:30;;;;;;;3.75;1.10;;;6.70;48.70;;;;;;5108020;27;34142;-76
2022/01/20 14:08:56;;;;;;;2.78;1.00;;;6.60;48.20;;;;;;5126552;27;34163;-76
2022/01/20 14:11:22;;;;;;;2.50;1.05;;;6.50;48.80;;;;;;5108075;27;34019;-76
2022/01/20 14:13:49;;;;;;;3.33;1.00;;;6.40;48.60;;;;;;5074118;27;35731;-75